Firm Cases, Texas
Current Conditions -  °F | °C
As of 2:13 PM on Monday 24 Nov 2014 (Local Time) from KSKF Reporting Station
Haze Haze  
Wind Chill: 64°   Ceiling: Unl
Heat Index: 64°   Visibility: 5mi
Dew Point: 28°   Wind: 8mph
Humidity: 26%   Direction: 360°N
Pressure: 30.03"   Gusts: NA
Location:  29.4209°N, 98.5275°W
Report Text: KSKF 242013Z AUTO 36007KT 5SM HZ CLR 18/M02 A3003 RMK AO2 $
Loading
Personal Weather Stations






























Interactive Weather Map New forecast layout! Learn more

10-Day Weather Forecast

Advertisements
Track Severe Weather on mobile